Saint-Agapit, Canada
Current Conditions -  °F | °C
As of 10:00 PM on Friday 21 Nov 2014 (Local Time) from CYQB Reporting Station
Few Clouds Few Clouds  
Wind Chill: -2°   Ceiling: Unl
Heat Index: 12°   Visibility: 20mi
Dew Point:   Wind: 12mph
Humidity: 73%   Direction: 250°WSW
Pressure: 30.25"   Gusts: NA
Location:  46.57°N, 71.43°W
Report Text: CYQB 220300Z 25010KT 20SM FEW015 FEW250 M11/M15 A3025 RMK CU1CI1 CU TR CI TR SLP250
Loading
Personal Weather Stations






























Interactive Weather Map New forecast layout! Learn more

10-Day Weather Forecast

Advertisements
Track Severe Weather on mobile